CRL weather

Brussels South Charleroi Airport
Brussels, Hainaut, Belgium

Public forecast

Using degrees Celsius for public forecast. Weather courtesy of forecast.io.

Current aviation weather report (METAR) for Brussels South Charleroi Airport

Retrieved 2019/10/17 01:20 UTC (36 minutes ago):

EBCI 170120Z 20009KT 3000 DZ BKN004 BKN006 13/12 Q1008 TEMPO 3000 RADZ BKN003

Aviation forecast (TAF) for Brussels South Charleroi Airport

Retrieved 2019-10-17 00:27 UTC (1 hour ago):

TAF EBCI 162303Z 1700/1806 20010KT 8000 -RADZ SCT004 BKN008 TEMPO 1700/1704 3500 RADZ PROB40 TEMPO 1700/1704 2000 DZ BKN004 BECMG 1703/1705 NSW FEW015 SCT025 TEMPO 1709/1711 BKN008